Portada
METAR-TAF:

METAR-TAF

Aeropuertos :

Zanjan, Irán

latitud: 36-41N, longitud: 048-29E, altitud: 1663 m

Observación

El informe se hizo hace 9 horas y 56 minutos, a las 15:00 UTC
Viento 6 kt del oeste-noroeste
Temperatura 21°C
Humedad 35%
Presión 1013 hPa
Visibilidad: 7000 m
Escasas nubes a una altura de 3500 ft

METAR: OITZ 171500Z 30006KT 7000 FEW035 21/05 Q1012 A2991

Hora: 05:26 (00:56 UTC)


TAF: falta

Observaciones y pronósticos meteorológicos de más de 4000 aeropuertos (mensajes METAR y TAF).

Los puntos amarillos y rojos representan las estaciones disponibles.

Ponga el ratón en el punto deseado para ver el nombre de la estación.

Haga clic para ver las observaciones y los pronósticos meteorológicos.

Para cambiar el mapa : haga clic en los botones verdes con una cruz de color negro para hacer un zoom, en el botón verde con un guión para alejar o en las flechas verdes para mapas adyacentes.


METAR-TAF: